sensor_id;sensor_type;location;lat;lon;timestamp;pressure;altitude;pressure_sealevel;temperature;humidity
62402;BME280;48440;51.224;22.506;2022-10-17T00:00:29;100210.00;;;13.67;66.21
62402;BME280;48440;51.224;22.506;2022-10-17T00:03:11;100206.94;;;13.64;66.54
62402;BME280;48440;51.224;22.506;2022-10-17T00:05:45;100205.78;;;13.59;66.62
62402;BME280;48440;51.224;22.506;2022-10-17T00:08:13;100208.44;;;13.54;66.57
62402;BME280;48440;51.224;22.506;2022-10-17T00:10:42;100212.50;;;13.52;66.83
62402;BME280;48440;51.224;22.506;2022-10-17T00:15:55;100213.59;;;13.51;66.83
62402;BME280;48440;51.224;22.506;2022-10-17T00:18:25;100222.28;;;13.48;66.84
62402;BME280;48440;51.224;22.506;2022-10-17T00:20:57;100219.81;;;13.46;66.96
62402;BME280;48440;51.224;22.506;2022-10-17T00:23:35;100226.84;;;13.42;66.80
62402;BME280;48440;51.224;22.506;2022-10-17T00:26:04;100224.34;;;13.41;66.95
62402;BME280;48440;51.224;22.506;2022-10-17T00:28:31;100222.97;;;13.38;67.19
62402;BME280;48440;51.224;22.506;2022-10-17T00:33:59;100226.44;;;13.34;67.40
62402;BME280;48440;51.224;22.506;2022-10-17T00:36:26;100222.31;;;13.31;67.59
62402;BME280;48440;51.224;22.506;2022-10-17T00:39:07;100220.31;;;13.27;67.36
62402;BME280;48440;51.224;22.506;2022-10-17T00:41:44;100212.13;;;13.27;67.31
62402;BME280;48440;51.224;22.506;2022-10-17T00:47:04;100218.03;;;13.18;67.83
62402;BME280;48440;51.224;22.506;2022-10-17T00:49:35;100213.41;;;13.19;67.48
62402;BME280;48440;51.224;22.506;2022-10-17T01:20:59;100228.31;;;13.00;68.05
62402;BME280;48440;51.224;22.506;2022-10-17T01:34:58;100247.25;;;12.89;68.59
62402;BME280;48440;51.224;22.506;2022-10-17T01:37:35;100247.50;;;12.88;68.38
62402;BME280;48440;51.224;22.506;2022-10-17T01:40:13;100253.19;;;12.86;68.39
62402;BME280;48440;51.224;22.506;2022-10-17T01:42:44;100261.00;;;12.83;68.86
62402;BME280;48440;51.224;22.506;2022-10-17T01:45:20;100260.19;;;12.82;68.71
62402;BME280;48440;51.224;22.506;2022-10-17T01:47:50;100265.38;;;12.84;68.36
62402;BME280;48440;51.224;22.506;2022-10-17T01:50:36;100269.19;;;12.83;68.37
62402;BME280;48440;51.224;22.506;2022-10-17T01:53:09;100280.22;;;12.76;68.71
62402;BME280;48440;51.224;22.506;2022-10-17T02:03:42;100271.47;;;12.74;68.80
62402;BME280;48440;51.224;22.506;2022-10-17T02:06:16;100262.66;;;12.67;68.74
62402;BME280;48440;51.224;22.506;2022-10-17T02:09:37;100261.59;;;12.68;68.74
62402;BME280;48440;51.224;22.506;2022-10-17T02:23:51;100269.56;;;12.58;69.57
62402;BME280;48440;51.224;22.506;2022-10-17T02:26:34;100258.91;;;12.56;69.63
62402;BME280;48440;51.224;22.506;2022-10-17T02:29:38;100259.63;;;12.52;69.39
62402;BME280;48440;51.224;22.506;2022-10-17T02:32:40;100265.09;;;12.52;69.63
62402;BME280;48440;51.224;22.506;2022-10-17T02:35:16;100268.38;;;12.54;69.69
62402;BME280;48440;51.224;22.506;2022-10-17T02:38:02;100267.22;;;12.50;69.59
62402;BME280;48440;51.224;22.506;2022-10-17T02:43:42;100275.38;;;12.50;69.86
62402;BME280;48440;51.224;22.506;2022-10-17T02:46:38;100279.41;;;12.47;69.36
62402;BME280;48440;51.224;22.506;2022-10-17T02:49:30;100282.72;;;12.49;69.56
62402;BME280;48440;51.224;22.506;2022-10-17T02:52:46;100293.31;;;12.46;69.43
62402;BME280;48440;51.224;22.506;2022-10-17T03:49:04;100307.72;;;12.06;71.20
62402;BME280;48440;51.224;22.506;2022-10-17T03:51:50;100312.94;;;12.08;70.92
62402;BME280;48440;51.224;22.506;2022-10-17T03:57:02;100320.03;;;12.09;71.20
62402;BME280;48440;51.224;22.506;2022-10-17T04:12:41;100308.59;;;11.95;71.31
62402;BME280;48440;51.224;22.506;2022-10-17T04:15:16;100314.03;;;11.95;71.35
62402;BME280;48440;51.224;22.506;2022-10-17T04:18:05;100313.22;;;11.95;71.56
62402;BME280;48440;51.224;22.506;2022-10-17T04:20:33;100320.28;;;11.96;71.53
62402;BME280;48440;51.224;22.506;2022-10-17T04:23:14;100330.38;;;11.95;71.38
62402;BME280;48440;51.224;22.506;2022-10-17T04:29:09;100333.78;;;11.91;71.13
62402;BME280;48440;51.224;22.506;2022-10-17T04:31:53;100321.72;;;11.86;71.56
62402;BME280;48440;51.224;22.506;2022-10-17T04:34:37;100322.78;;;11.85;71.36
62402;BME280;48440;51.224;22.506;2022-10-17T04:37:24;100329.31;;;11.84;71.58
62402;BME280;48440;51.224;22.506;2022-10-17T04:39:58;100334.97;;;11.83;71.28
62402;BME280;48440;51.224;22.506;2022-10-17T04:42:26;100337.94;;;11.81;71.65
62402;BME280;48440;51.224;22.506;2022-10-17T04:44:57;100338.16;;;11.80;71.21
62402;BME280;48440;51.224;22.506;2022-10-17T04:47:36;100340.66;;;11.81;71.46
62402;BME280;48440;51.224;22.506;2022-10-17T04:52:48;100347.75;;;11.82;71.38
62402;BME280;48440;51.224;22.506;2022-10-17T04:55:15;100353.88;;;11.78;72.03
62402;BME280;48440;51.224;22.506;2022-10-17T04:57:45;100356.13;;;11.81;71.47
62402;BME280;48440;51.224;22.506;2022-10-17T05:00:12;100357.88;;;11.75;71.97
62402;BME280;48440;51.224;22.506;2022-10-17T05:02:49;100361.41;;;11.76;72.17
62402;BME280;48440;51.224;22.506;2022-10-17T05:05:26;100359.69;;;11.81;71.84
62402;BME280;48440;51.224;22.506;2022-10-17T05:07:54;100370.09;;;11.84;71.69
62402;BME280;48440;51.224;22.506;2022-10-17T05:10:23;100370.31;;;11.83;71.51
62402;BME280;48440;51.224;22.506;2022-10-17T05:12:56;100368.44;;;11.83;71.84
62402;BME280;48440;51.224;22.506;2022-10-17T05:17:58;100366.78;;;11.82;71.83
62402;BME280;48440;51.224;22.506;2022-10-17T05:20:33;100378.00;;;11.86;71.65
62402;BME280;48440;51.224;22.506;2022-10-17T05:23:21;100388.06;;;11.85;71.75
62402;BME280;48440;51.224;22.506;2022-10-17T05:25:55;100385.72;;;11.89;71.89
62402;BME280;48440;51.224;22.506;2022-10-17T05:28:25;100395.06;;;11.93;71.81
62402;BME280;48440;51.224;22.506;2022-10-17T05:30:57;100390.19;;;11.95;71.77
62402;BME280;48440;51.224;22.506;2022-10-17T05:36:12;100388.41;;;12.01;71.22
62402;BME280;48440;51.224;22.506;2022-10-17T05:42:02;100395.97;;;12.10;71.28
62402;BME280;48440;51.224;22.506;2022-10-17T05:45:03;100398.81;;;12.15;70.93
62402;BME280;48440;51.224;22.506;2022-10-17T05:47:59;100390.19;;;12.18;71.13
62402;BME280;48440;51.224;22.506;2022-10-17T05:53:33;100423.75;;;12.24;71.18
62402;BME280;48440;51.224;22.506;2022-10-17T06:04:38;100444.44;;;12.37;70.90
62402;BME280;48440;51.224;22.506;2022-10-17T06:17:48;100433.06;;;12.51;70.68
62402;BME280;48440;51.224;22.506;2022-10-17T06:20:14;100426.78;;;12.51;71.07
62402;BME280;48440;51.224;22.506;2022-10-17T06:22:43;100433.41;;;12.55;71.03
62402;BME280;48440;51.224;22.506;2022-10-17T06:25:20;100437.66;;;12.63;70.71
62402;BME280;48440;51.224;22.506;2022-10-17T06:27:49;100442.38;;;12.67;70.88
62402;BME280;48440;51.224;22.506;2022-10-17T06:30:17;100454.22;;;12.73;70.77
62402;BME280;48440;51.224;22.506;2022-10-17T06:32:45;100456.66;;;12.74;70.35
62402;BME280;48440;51.224;22.506;2022-10-17T06:35:11;100458.19;;;12.82;69.97
62402;BME280;48440;51.224;22.506;2022-10-17T06:37:43;100460.31;;;12.91;69.61
62402;BME280;48440;51.224;22.506;2022-10-17T06:40:12;100464.28;;;13.01;69.91
62402;BME280;48440;51.224;22.506;2022-10-17T06:42:39;100466.63;;;13.09;69.44
62402;BME280;48440;51.224;22.506;2022-10-17T06:45:06;100475.16;;;13.12;69.54
62402;BME280;48440;51.224;22.506;2022-10-17T06:47:34;100478.72;;;13.24;69.22
62402;BME280;48440;51.224;22.506;2022-10-17T06:50:00;100479.94;;;13.34;69.08
62402;BME280;48440;51.224;22.506;2022-10-17T06:52:28;100486.91;;;13.41;69.03
62402;BME280;48440;51.224;22.506;2022-10-17T06:54:54;100487.75;;;13.58;68.65
62402;BME280;48440;51.224;22.506;2022-10-17T06:57:20;100479.34;;;14.27;66.41
62402;BME280;48440;51.224;22.506;2022-10-17T06:59:46;100486.25;;;15.17;63.75
62402;BME280;48440;51.224;22.506;2022-10-17T07:02:11;100486.22;;;15.92;60.89
62402;BME280;48440;51.224;22.506;2022-10-17T07:04:37;100484.63;;;16.34;59.79
62402;BME280;48440;51.224;22.506;2022-10-17T07:07:03;100489.03;;;16.92;58.19
62402;BME280;48440;51.224;22.506;2022-10-17T07:09:30;100494.63;;;17.17;56.75
62402;BME280;48440;51.224;22.506;2022-10-17T07:11:57;100499.06;;;17.34;56.54
62402;BME280;48440;51.224;22.506;2022-10-17T07:14:23;100514.81;;;17.84;55.02
62402;BME280;48440;51.224;22.506;2022-10-17T07:16:56;100509.00;;;18.46;53.35
62402;BME280;48440;51.224;22.506;2022-10-17T07:19:23;100494.16;;;19.27;50.95
62402;BME280;48440;51.224;22.506;2022-10-17T07:21:49;100496.56;;;19.88;49.71
62402;BME280;48440;51.224;22.506;2022-10-17T07:24:15;100494.22;;;20.34;48.37
62402;BME280;48440;51.224;22.506;2022-10-17T07:26:41;100490.59;;;20.67;47.34
62402;BME280;48440;51.224;22.506;2022-10-17T07:29:06;100498.34;;;20.89;46.92
62402;BME280;48440;51.224;22.506;2022-10-17T07:31:32;100495.47;;;21.18;46.32
62402;BME280;48440;51.224;22.506;2022-10-17T07:33:59;100497.78;;;21.54;44.97
62402;BME280;48440;51.224;22.506;2022-10-17T07:36:24;100501.28;;;21.41;45.38
62402;BME280;48440;51.224;22.506;2022-10-17T07:38:50;100501.56;;;21.20;46.06
62402;BME280;48440;51.224;22.506;2022-10-17T07:41:16;100493.00;;;21.22;46.34
62402;BME280;48440;51.224;22.506;2022-10-17T07:43:43;100495.22;;;21.57;45.70
62402;BME280;48440;51.224;22.506;2022-10-17T07:46:09;100496.13;;;21.34;45.92
62402;BME280;48440;51.224;22.506;2022-10-17T07:48:37;100497.41;;;21.18;46.88
62402;BME280;48440;51.224;22.506;2022-10-17T07:51:05;100504.56;;;21.43;46.37
62402;BME280;48440;51.224;22.506;2022-10-17T07:53:34;100509.78;;;21.44;46.69
62402;BME280;48440;51.224;22.506;2022-10-17T07:56:06;100512.63;;;21.15;47.60
62402;BME280;48440;51.224;22.506;2022-10-17T07:58:33;100516.47;;;20.95;48.18
62402;BME280;48440;51.224;22.506;2022-10-17T08:01:06;100525.63;;;20.67;48.39
62402;BME280;48440;51.224;22.506;2022-10-17T08:03:33;100520.34;;;20.71;48.23
62402;BME280;48440;51.224;22.506;2022-10-17T08:06:00;100518.47;;;20.66;48.56
62402;BME280;48440;51.224;22.506;2022-10-17T08:08:26;100516.06;;;20.83;48.22
62402;BME280;48440;51.224;22.506;2022-10-17T08:10:53;100530.03;;;20.68;48.64
62402;BME280;48440;51.224;22.506;2022-10-17T08:13:20;100522.47;;;20.79;48.74
62402;BME280;48440;51.224;22.506;2022-10-17T08:15:46;100518.00;;;20.83;48.47
62402;BME280;48440;51.224;22.506;2022-10-17T08:18:13;100525.38;;;20.63;48.51
62402;BME280;48440;51.224;22.506;2022-10-17T08:20:40;100523.72;;;20.62;49.03
62402;BME280;48440;51.224;22.506;2022-10-17T08:23:06;100526.16;;;20.69;48.83
62402;BME280;48440;51.224;22.506;2022-10-17T08:25:31;100518.53;;;20.85;48.82
62402;BME280;48440;51.224;22.506;2022-10-17T08:27:58;100512.00;;;20.99;48.01
62402;BME280;48440;51.224;22.506;2022-10-17T08:30:24;100507.91;;;21.21;47.67
62402;BME280;48440;51.224;22.506;2022-10-17T08:32:50;100513.91;;;21.47;47.17
62402;BME280;48440;51.224;22.506;2022-10-17T08:35:16;100508.31;;;21.52;46.89
62402;BME280;48440;51.224;22.506;2022-10-17T08:37:41;100515.19;;;21.54;46.35
62402;BME280;48440;51.224;22.506;2022-10-17T08:40:15;100512.84;;;21.61;47.06
62402;BME280;48440;51.224;22.506;2022-10-17T08:45:54;100516.13;;;21.82;46.16
62402;BME280;48440;51.224;22.506;2022-10-17T08:48:23;100524.25;;;21.92;46.09
62402;BME280;48440;51.224;22.506;2022-10-17T08:50:59;100516.19;;;21.96;46.36
62402;BME280;48440;51.224;22.506;2022-10-17T08:53:48;100521.66;;;22.01;45.83
62402;BME280;48440;51.224;22.506;2022-10-17T08:56:26;100526.13;;;21.97;45.89
62402;BME280;48440;51.224;22.506;2022-10-17T08:58:54;100526.78;;;21.89;46.28
62402;BME280;48440;51.224;22.506;2022-10-17T09:04:18;100526.19;;;22.11;46.63
62402;BME280;48440;51.224;22.506;2022-10-17T09:07:31;100518.53;;;22.54;46.24
62402;BME280;48440;51.224;22.506;2022-10-17T09:10:45;100512.91;;;22.73;45.63
62402;BME280;48440;51.224;22.506;2022-10-17T09:16:18;100510.66;;;22.75;45.39
62402;BME280;48440;51.224;22.506;2022-10-17T09:21:45;100518.81;;;22.85;44.86
62402;BME280;48440;51.224;22.506;2022-10-17T09:24:19;100518.06;;;22.79;45.01
62402;BME280;48440;51.224;22.506;2022-10-17T09:26:50;100528.78;;;22.67;45.04
62402;BME280;48440;51.224;22.506;2022-10-17T09:29:24;100516.38;;;22.64;44.54
62402;BME280;48440;51.224;22.506;2022-10-17T09:31:59;100520.38;;;22.58;44.89
62402;BME280;48440;51.224;22.506;2022-10-17T09:34:28;100524.59;;;22.69;44.63
62402;BME280;48440;51.224;22.506;2022-10-17T09:36:57;100521.66;;;22.80;44.80
62402;BME280;48440;51.224;22.506;2022-10-17T09:39:24;100523.91;;;22.78;45.42
62402;BME280;48440;51.224;22.506;2022-10-17T09:41:53;100532.13;;;22.96;45.55
62402;BME280;48440;51.224;22.506;2022-10-17T09:49:39;100525.94;;;23.13;44.71
62402;BME280;48440;51.224;22.506;2022-10-17T09:52:13;100533.44;;;22.99;45.30
62402;BME280;48440;51.224;22.506;2022-10-17T09:57:11;100531.00;;;22.97;45.07
62402;BME280;48440;51.224;22.506;2022-10-17T09:59:46;100530.13;;;22.69;45.37
62402;BME280;48440;51.224;22.506;2022-10-17T10:07:31;100528.00;;;22.94;46.19
62402;BME280;48440;51.224;22.506;2022-10-17T10:09:58;100538.78;;;22.95;46.54
62402;BME280;48440;51.224;22.506;2022-10-17T10:12:29;100533.47;;;22.85;46.50
62402;BME280;48440;51.224;22.506;2022-10-17T10:14:55;100539.84;;;22.67;46.07
62402;BME280;48440;51.224;22.506;2022-10-17T10:17:39;100542.22;;;22.60;46.27
62402;BME280;48440;51.224;22.506;2022-10-17T10:23:17;100543.81;;;22.61;46.39
62402;BME280;48440;51.224;22.506;2022-10-17T10:25:58;100540.16;;;22.65;45.99
62402;BME280;48440;51.224;22.506;2022-10-17T10:28:34;100540.56;;;22.59;46.46
62402;BME280;48440;51.224;22.506;2022-10-17T10:31:09;100539.84;;;22.53;46.22
62402;BME280;48440;51.224;22.506;2022-10-17T10:33:39;100546.50;;;22.52;46.74
62402;BME280;48440;51.224;22.506;2022-10-17T10:36:06;100544.34;;;22.49;46.73
62402;BME280;48440;51.224;22.506;2022-10-17T10:38:33;100546.44;;;22.39;46.78
62402;BME280;48440;51.224;22.506;2022-10-17T10:41:05;100545.00;;;22.27;46.79
62402;BME280;48440;51.224;22.506;2022-10-17T10:46:15;100534.78;;;22.09;48.31
62402;BME280;48440;51.224;22.506;2022-10-17T10:51:22;100528.44;;;21.90;47.83
62402;BME280;48440;51.224;22.506;2022-10-17T10:54:02;100532.72;;;21.82;48.37
62402;BME280;48440;51.224;22.506;2022-10-17T10:56:39;100539.22;;;21.73;48.41
62402;BME280;48440;51.224;22.506;2022-10-17T11:01:56;100531.75;;;21.54;48.49
62402;BME280;48440;51.224;22.506;2022-10-17T11:04:35;100520.00;;;21.44;48.85
62402;BME280;48440;51.224;22.506;2022-10-17T11:07:31;100527.78;;;21.42;48.89
62402;BME280;48440;51.224;22.506;2022-10-17T11:10:25;100526.72;;;21.38;49.71
62402;BME280;48440;51.224;22.506;2022-10-17T11:13:04;100519.94;;;21.30;50.02
62402;BME280;48440;51.224;22.506;2022-10-17T11:15:40;100525.53;;;21.25;49.80
62402;BME280;48440;51.224;22.506;2022-10-17T11:18:20;100518.38;;;21.19;49.74
62402;BME280;48440;51.224;22.506;2022-10-17T11:21:02;100515.97;;;21.12;50.03
62402;BME280;48440;51.224;22.506;2022-10-17T11:23:47;100509.50;;;21.03;51.35
62402;BME280;48440;51.224;22.506;2022-10-17T11:26:28;100508.38;;;21.04;50.46
62402;BME280;48440;51.224;22.506;2022-10-17T11:28:57;100496.81;;;20.78;50.99
62402;BME280;48440;51.224;22.506;2022-10-17T11:31:26;100501.09;;;20.65;50.94
62402;BME280;48440;51.224;22.506;2022-10-17T11:34:15;100504.19;;;20.59;51.86
62402;BME280;48440;51.224;22.506;2022-10-17T11:36:46;100490.28;;;20.45;52.33
62402;BME280;48440;51.224;22.506;2022-10-17T11:39:19;100488.47;;;20.30;52.36
62402;BME280;48440;51.224;22.506;2022-10-17T11:41:51;100493.25;;;20.20;52.71
62402;BME280;48440;51.224;22.506;2022-10-17T11:44:37;100496.88;;;20.15;53.05
62402;BME280;48440;51.224;22.506;2022-10-17T11:49:54;100488.66;;;20.10;53.53
62402;BME280;48440;51.224;22.506;2022-10-17T11:55:20;100484.94;;;19.96;53.38
62402;BME280;48440;51.224;22.506;2022-10-17T12:03:27;100481.34;;;19.95;53.63
62402;BME280;48440;51.224;22.506;2022-10-17T12:06:10;100476.91;;;19.99;53.61
62402;BME280;48440;51.224;22.506;2022-10-17T12:09:09;100469.94;;;20.07;54.02
62402;BME280;48440;51.224;22.506;2022-10-17T12:12:05;100471.00;;;20.11;53.53
62402;BME280;48440;51.224;22.506;2022-10-17T12:14:44;100470.72;;;20.13;53.83
62402;BME280;48440;51.224;22.506;2022-10-17T12:17:33;100471.00;;;20.11;53.48
62402;BME280;48440;51.224;22.506;2022-10-17T12:20:24;100462.53;;;20.03;53.21
62402;BME280;48440;51.224;22.506;2022-10-17T12:23:18;100464.84;;;19.95;53.35
62402;BME280;48440;51.224;22.506;2022-10-17T12:25:52;100452.47;;;19.93;53.58
62402;BME280;48440;51.224;22.506;2022-10-17T12:28:25;100448.88;;;19.92;53.69
62402;BME280;48440;51.224;22.506;2022-10-17T12:33:47;100445.59;;;19.90;53.98
62402;BME280;48440;51.224;22.506;2022-10-17T12:46:51;100442.44;;;19.73;54.80
62402;BME280;48440;51.224;22.506;2022-10-17T12:49:21;100437.78;;;19.69;56.00
62402;BME280;48440;51.224;22.506;2022-10-17T12:54:57;100440.88;;;19.62;55.29
62402;BME280;48440;51.224;22.506;2022-10-17T12:57:40;100441.69;;;19.62;54.91
62402;BME280;48440;51.224;22.506;2022-10-17T13:00:30;100439.47;;;19.64;54.69
62402;BME280;48440;51.224;22.506;2022-10-17T13:03:26;100435.03;;;19.69;54.69
62402;BME280;48440;51.224;22.506;2022-10-17T13:05:56;100429.00;;;19.67;55.00
62402;BME280;48440;51.224;22.506;2022-10-17T13:08:32;100430.38;;;19.64;54.99
62402;BME280;48440;51.224;22.506;2022-10-17T13:10:59;100433.97;;;19.64;55.12
62402;BME280;48440;51.224;22.506;2022-10-17T13:13:45;100440.88;;;19.62;55.24
62402;BME280;48440;51.224;22.506;2022-10-17T13:16:36;100435.06;;;19.63;55.67
62402;BME280;48440;51.224;22.506;2022-10-17T13:19:12;100435.59;;;19.65;54.87
62402;BME280;48440;51.224;22.506;2022-10-17T13:21:39;100434.50;;;19.67;54.67
62402;BME280;48440;51.224;22.506;2022-10-17T13:24:36;100435.59;;;19.65;54.90
62402;BME280;48440;51.224;22.506;2022-10-17T13:27:03;100430.38;;;19.64;54.84
62402;BME280;48440;51.224;22.506;2022-10-17T13:29:30;100433.44;;;19.62;55.01
62402;BME280;48440;51.224;22.506;2022-10-17T13:32:02;100437.28;;;19.61;55.46
62402;BME280;48440;51.224;22.506;2022-10-17T13:34:30;100439.50;;;19.59;55.05
62402;BME280;48440;51.224;22.506;2022-10-17T13:36:59;100437.56;;;19.60;55.14
62402;BME280;48440;51.224;22.506;2022-10-17T13:42:43;100437.31;;;19.56;54.92
62402;BME280;48440;51.224;22.506;2022-10-17T13:53:47;100428.81;;;19.53;55.42
62402;BME280;48440;51.224;22.506;2022-10-17T14:06:53;100422.78;;;19.46;56.47
62402;BME280;48440;51.224;22.506;2022-10-17T14:12:19;100417.31;;;19.41;56.84
62402;BME280;48440;51.224;22.506;2022-10-17T14:14:50;100425.59;;;19.41;56.91
62402;BME280;48440;51.224;22.506;2022-10-17T14:17:32;100425.59;;;19.41;56.99
62402;BME280;48440;51.224;22.506;2022-10-17T14:20:05;100413.78;;;19.35;57.12
62402;BME280;48440;51.224;22.506;2022-10-17T14:22:34;100404.97;;;19.33;56.94
62402;BME280;48440;51.224;22.506;2022-10-17T14:25:00;100413.53;;;19.31;57.05
62402;BME280;48440;51.224;22.506;2022-10-17T14:27:33;100411.88;;;19.30;57.19
62402;BME280;48440;51.224;22.506;2022-10-17T14:30:30;100411.63;;;19.27;57.31
62402;BME280;48440;51.224;22.506;2022-10-17T14:33:10;100414.94;;;19.24;57.31
62402;BME280;48440;51.224;22.506;2022-10-17T14:36:10;100405.09;;;19.18;57.86
62402;BME280;48440;51.224;22.506;2022-10-17T14:38:44;100410.31;;;19.19;57.91
62402;BME280;48440;51.224;22.506;2022-10-17T14:41:25;100415.84;;;19.14;58.12
62402;BME280;48440;51.224;22.506;2022-10-17T14:43:59;100408.97;;;19.12;58.19
62402;BME280;48440;51.224;22.506;2022-10-17T14:49:15;100420.28;;;19.05;58.86
62402;BME280;48440;51.224;22.506;2022-10-17T14:52:11;100421.97;;;19.01;59.20
62402;BME280;48440;51.224;22.506;2022-10-17T14:54:37;100413.75;;;18.96;59.38
62402;BME280;48440;51.224;22.506;2022-10-17T14:59:48;100416.53;;;18.91;59.95
62402;BME280;48440;51.224;22.506;2022-10-17T15:02:15;100409.66;;;18.88;60.17
62402;BME280;48440;51.224;22.506;2022-10-17T15:04:41;100417.94;;;18.83;60.32
62402;BME280;48440;51.224;22.506;2022-10-17T15:07:12;100413.56;;;18.77;60.40
62402;BME280;48440;51.224;22.506;2022-10-17T15:09:39;100409.72;;;18.73;60.77
62402;BME280;48440;51.224;22.506;2022-10-17T15:12:19;100411.41;;;18.69;60.94
62402;BME280;48440;51.224;22.506;2022-10-17T15:14:47;100415.81;;;18.65;61.02
62402;BME280;48440;51.224;22.506;2022-10-17T15:17:21;100408.66;;;18.59;61.35
62402;BME280;48440;51.224;22.506;2022-10-17T15:19:50;100405.09;;;18.53;61.71
62402;BME280;48440;51.224;22.506;2022-10-17T15:22:22;100407.88;;;18.48;61.98
62402;BME280;48440;51.224;22.506;2022-10-17T15:24:51;100414.22;;;18.44;62.34
62402;BME280;48440;51.224;22.506;2022-10-17T15:27:33;100407.09;;;18.38;62.40
62402;BME280;48440;51.224;22.506;2022-10-17T15:29:59;100407.09;;;18.33;62.77
62402;BME280;48440;51.224;22.506;2022-10-17T15:32:25;100406.84;;;18.29;62.61
62402;BME280;48440;51.224;22.506;2022-10-17T15:34:51;100401.91;;;18.26;62.90
62402;BME280;48440;51.224;22.506;2022-10-17T15:37:37;100399.72;;;18.23;63.29
62402;BME280;48440;51.224;22.506;2022-10-17T15:43:16;100400.84;;;18.17;63.36
62402;BME280;48440;51.224;22.506;2022-10-17T15:45:42;100398.66;;;18.14;63.19
62402;BME280;48440;51.224;22.506;2022-10-17T15:48:16;100402.78;;;18.11;63.51
62402;BME280;48440;51.224;22.506;2022-10-17T15:50:43;100397.00;;;18.08;63.20
62402;BME280;48440;51.224;22.506;2022-10-17T15:53:11;100412.13;;;18.05;63.49
62402;BME280;48440;51.224;22.506;2022-10-17T15:58:18;100411.03;;;18.01;63.85
62402;BME280;48440;51.224;22.506;2022-10-17T16:00:44;100407.16;;;17.97;63.97
62402;BME280;48440;51.224;22.506;2022-10-17T16:03:10;100403.34;;;17.93;63.87
62402;BME280;48440;51.224;22.506;2022-10-17T16:05:40;100411.88;;;17.91;63.92
62402;BME280;48440;51.224;22.506;2022-10-17T16:08:05;100419.00;;;17.87;64.56
62402;BME280;48440;51.224;22.506;2022-10-17T16:10:31;100417.09;;;17.83;64.52
62402;BME280;48440;51.224;22.506;2022-10-17T16:12:57;100407.75;;;17.79;64.64
62402;BME280;48440;51.224;22.506;2022-10-17T16:15:24;100405.28;;;17.77;64.37
62402;BME280;48440;51.224;22.506;2022-10-17T16:17:53;100416.81;;;17.74;64.56
62402;BME280;48440;51.224;22.506;2022-10-17T16:20:19;100411.59;;;17.73;64.83
62402;BME280;48440;51.224;22.506;2022-10-17T16:22:45;100417.06;;;17.68;64.87
62402;BME280;48440;51.224;22.506;2022-10-17T16:25:22;100417.66;;;17.65;65.01
62402;BME280;48440;51.224;22.506;2022-10-17T16:27:50;100417.66;;;17.65;64.95
62402;BME280;48440;51.224;22.506;2022-10-17T16:30:16;100417.06;;;17.62;64.92
62402;BME280;48440;51.224;22.506;2022-10-17T16:32:42;100404.72;;;17.60;64.91
62402;BME280;48440;51.224;22.506;2022-10-17T16:35:11;100404.44;;;17.56;65.10
62402;BME280;48440;51.224;22.506;2022-10-17T16:37:40;100409.09;;;17.56;64.90
62402;BME280;48440;51.224;22.506;2022-10-17T16:40:06;100401.69;;;17.56;64.81
62402;BME280;48440;51.224;22.506;2022-10-17T16:42:31;100408.53;;;17.54;64.70
62402;BME280;48440;51.224;22.506;2022-10-17T16:44:57;100413.22;;;17.53;64.90
62402;BME280;48440;51.224;22.506;2022-10-17T16:47:22;100395.38;;;17.51;64.81
62402;BME280;48440;51.224;22.506;2022-10-17T16:49:48;100398.94;;;17.51;64.69
62402;BME280;48440;51.224;22.506;2022-10-17T16:52:14;100408.81;;;17.47;64.83
62402;BME280;48440;51.224;22.506;2022-10-17T16:54:39;100407.44;;;17.45;64.90
62402;BME280;48440;51.224;22.506;2022-10-17T16:57:05;100406.88;;;17.43;64.97
62402;BME280;48440;51.224;22.506;2022-10-17T16:59:30;100415.97;;;17.38;65.29
62402;BME280;48440;51.224;22.506;2022-10-17T17:01:56;100415.69;;;17.35;65.48
62402;BME280;48440;51.224;22.506;2022-10-17T17:04:21;100422.53;;;17.32;65.37
62402;BME280;48440;51.224;22.506;2022-10-17T17:06:47;100418.94;;;17.26;65.54
62402;BME280;48440;51.224;22.506;2022-10-17T17:09:13;100415.09;;;17.22;65.91
62402;BME280;48440;51.224;22.506;2022-10-17T17:11:38;100414.28;;;17.22;65.54
62402;BME280;48440;51.224;22.506;2022-10-17T17:14:04;100406.03;;;17.17;65.75
62402;BME280;48440;51.224;22.506;2022-10-17T17:16:32;100418.09;;;17.21;65.63
62402;BME280;48440;51.224;22.506;2022-10-17T17:19:03;100410.69;;;17.16;65.93
62402;BME280;48440;51.224;22.506;2022-10-17T17:21:30;100416.75;;;17.13;65.72
62402;BME280;48440;51.224;22.506;2022-10-17T17:23:57;100421.41;;;17.13;65.79
62402;BME280;48440;51.224;22.506;2022-10-17T17:26:25;100431.25;;;17.09;65.69
62402;BME280;48440;51.224;22.506;2022-10-17T17:28:50;100427.69;;;17.08;65.89
62402;BME280;48440;51.224;22.506;2022-10-17T17:31:26;100428.22;;;17.05;65.71
62402;BME280;48440;51.224;22.506;2022-10-17T17:33:52;100423.28;;;17.02;66.07
62402;BME280;48440;51.224;22.506;2022-10-17T17:36:26;100425.47;;;17.00;65.98
62402;BME280;48440;51.224;22.506;2022-10-17T17:38:54;100419.69;;;16.96;66.28
62402;BME280;48440;51.224;22.506;2022-10-17T17:41:20;100419.41;;;16.93;66.23
62402;BME280;48440;51.224;22.506;2022-10-17T17:43:47;100423.81;;;16.89;66.50
62402;BME280;48440;51.224;22.506;2022-10-17T17:46:15;100424.59;;;16.84;66.42
62402;BME280;48440;51.224;22.506;2022-10-17T17:48:41;100421.03;;;16.79;66.59